createdAt,value
2022-08-17T00:00:57.162Z,100.00
2022-08-17T00:03:39.582Z,100.00
2022-08-17T00:06:17.032Z,100.00
2022-08-17T00:08:51.288Z,100.00
2022-08-17T00:11:28.976Z,100.00
2022-08-17T00:14:21.035Z,100.00
2022-08-17T00:16:58.213Z,100.00
2022-08-17T00:19:28.838Z,100.00
2022-08-17T00:22:30.824Z,100.00
2022-08-17T00:24:53.093Z,100.00
2022-08-17T00:27:24.268Z,100.00
2022-08-17T00:29:54.407Z,100.00
2022-08-17T00:33:15.711Z,100.00
2022-08-17T00:35:29.969Z,100.00
2022-08-17T00:37:58.772Z,100.00
2022-08-17T00:40:40.739Z,100.00
2022-08-17T00:43:20.937Z,100.00
2022-08-17T00:45:52.569Z,100.00
2022-08-17T00:48:29.809Z,100.00
2022-08-17T00:51:30.423Z,100.00
2022-08-17T00:54:14.043Z,100.00
2022-08-17T00:57:14.108Z,100.00
2022-08-17T01:00:03.256Z,100.00
2022-08-17T01:02:42.701Z,100.00
2022-08-17T01:05:20.850Z,100.00
2022-08-17T01:07:53.857Z,100.00
2022-08-17T01:10:58.482Z,100.00
2022-08-17T01:13:44.137Z,100.00
2022-08-17T01:16:29.294Z,100.00
2022-08-17T01:19:04.167Z,100.00
2022-08-17T01:21:53.495Z,100.00
2022-08-17T01:24:24.934Z,100.00
2022-08-17T01:26:57.731Z,100.00
2022-08-17T01:29:31.036Z,100.00
2022-08-17T01:32:06.961Z,100.00
2022-08-17T01:34:43.383Z,100.00
2022-08-17T01:37:33.479Z,100.00
2022-08-17T01:40:38.621Z,100.00
2022-08-17T01:43:22.583Z,100.00
2022-08-17T01:46:02.654Z,100.00
2022-08-17T01:48:41.622Z,100.00
2022-08-17T01:51:14.921Z,100.00
2022-08-17T01:53:53.485Z,100.00
2022-08-17T01:56:29.070Z,100.00
2022-08-17T01:59:01.227Z,100.00
2022-08-17T02:01:35.352Z,100.00
2022-08-17T02:04:08.800Z,100.00
2022-08-17T02:06:52.930Z,100.00
2022-08-17T02:09:30.127Z,100.00
2022-08-17T02:12:37.304Z,100.00
2022-08-17T02:14:57.740Z,100.00
2022-08-17T02:17:30.379Z,100.00
2022-08-17T02:20:02.442Z,100.00
2022-08-17T02:22:36.484Z,100.00
2022-08-17T02:25:11.506Z,100.00
2022-08-17T02:27:40.604Z,100.00
2022-08-17T02:30:49.868Z,100.00
2022-08-17T02:33:04.242Z,100.00
2022-08-17T02:35:38.876Z,100.00
2022-08-17T02:38:07.952Z,100.00
2022-08-17T02:40:37.612Z,100.00
2022-08-17T02:43:09.680Z,100.00
2022-08-17T02:45:38.477Z,100.00
2022-08-17T02:48:07.471Z,100.00
2022-08-17T02:50:37.233Z,100.00
2022-08-17T02:53:06.252Z,100.00
2022-08-17T02:55:38.562Z,100.00
2022-08-17T02:58:08.857Z,100.00
2022-08-17T03:00:41.948Z,100.00
2022-08-17T03:03:14.062Z,100.00
2022-08-17T03:05:43.383Z,100.00
2022-08-17T03:08:13.364Z,100.00
2022-08-17T03:10:44.406Z,100.00
2022-08-17T03:13:15.915Z,100.00
2022-08-17T03:15:46.473Z,100.00
2022-08-17T03:18:25.050Z,100.00
2022-08-17T03:20:59.079Z,100.00
2022-08-17T03:23:30.345Z,100.00
2022-08-17T03:26:01.190Z,100.00
2022-08-17T03:28:31.209Z,100.00
2022-08-17T03:31:00.319Z,100.00
2022-08-17T03:33:29.669Z,100.00
2022-08-17T03:35:59.116Z,100.00
2022-08-17T03:38:28.413Z,100.00
2022-08-17T03:40:59.754Z,100.00
2022-08-17T03:43:32.228Z,100.00
2022-08-17T03:46:27.237Z,100.00
2022-08-17T03:49:16.756Z,100.00
2022-08-17T03:52:04.091Z,100.00
2022-08-17T03:54:51.613Z,100.00
2022-08-17T03:57:20.587Z,100.00
2022-08-17T03:59:49.872Z,100.00
2022-08-17T04:02:29.420Z,100.00
2022-08-17T04:04:59.186Z,100.00
2022-08-17T04:07:30.665Z,100.00
2022-08-17T04:10:00.782Z,100.00
2022-08-17T04:12:42.467Z,100.00
2022-08-17T04:15:12.934Z,100.00
2022-08-17T04:17:41.516Z,100.00
2022-08-17T04:20:12.927Z,100.00
2022-08-17T04:23:00.062Z,100.00
2022-08-17T04:25:31.277Z,100.00
2022-08-17T04:28:01.488Z,100.00
2022-08-17T04:30:34.069Z,100.00
2022-08-17T04:33:10.781Z,100.00
2022-08-17T04:35:46.058Z,100.00
2022-08-17T04:38:18.062Z,100.00
2022-08-17T04:41:05.517Z,100.00
2022-08-17T04:43:36.677Z,100.00
2022-08-17T04:46:15.091Z,100.00
2022-08-17T04:48:48.898Z,100.00
2022-08-17T04:51:25.733Z,100.00
2022-08-17T04:54:01.456Z,100.00
2022-08-17T04:56:32.219Z,100.00
2022-08-17T04:59:05.523Z,100.00
2022-08-17T05:01:36.848Z,100.00
2022-08-17T05:04:33.283Z,100.00
2022-08-17T05:07:00.393Z,100.00
2022-08-17T05:09:29.720Z,100.00
2022-08-17T05:12:02.693Z,100.00
2022-08-17T05:14:32.463Z,100.00
2022-08-17T05:17:04.160Z,100.00
2022-08-17T05:19:38.451Z,100.00
2022-08-17T05:22:07.293Z,100.00
2022-08-17T05:24:41.251Z,100.00
2022-08-17T05:27:18.887Z,100.00
2022-08-17T05:29:49.261Z,100.00
2022-08-17T05:32:39.247Z,100.00
2022-08-17T05:35:09.823Z,100.00
2022-08-17T05:37:40.505Z,100.00
2022-08-17T05:40:11.526Z,100.00
2022-08-17T05:42:41.868Z,100.00
2022-08-17T05:45:12.242Z,100.00
2022-08-17T05:47:45.512Z,100.00
2022-08-17T05:50:27.033Z,100.00
2022-08-17T05:53:37.450Z,100.00
2022-08-17T05:56:28.007Z,100.00
2022-08-17T05:59:24.829Z,100.00
2022-08-17T06:02:48.221Z,100.00
2022-08-17T06:05:51.969Z,100.00
2022-08-17T06:08:33.863Z,100.00
2022-08-17T06:11:40.758Z,100.00
2022-08-17T06:14:27.561Z,100.00
2022-08-17T06:17:02.703Z,100.00
2022-08-17T06:19:31.931Z,100.00
2022-08-17T06:22:03.514Z,100.00
2022-08-17T06:24:43.315Z,100.00
2022-08-17T06:27:27.137Z,100.00
2022-08-17T06:30:59.174Z,100.00
2022-08-17T06:33:24.881Z,100.00
2022-08-17T06:36:02.798Z,100.00
2022-08-17T06:39:08.291Z,100.00
2022-08-17T06:41:50.997Z,100.00
2022-08-17T06:44:50.269Z,100.00
2022-08-17T06:47:48.999Z,100.00
2022-08-17T06:50:27.632Z,100.00
2022-08-17T06:53:31.960Z,100.00
2022-08-17T06:56:14.538Z,100.00
2022-08-17T06:58:45.643Z,100.00
2022-08-17T07:01:31.619Z,100.00
2022-08-17T07:04:18.389Z,100.00
2022-08-17T07:07:27.538Z,100.00
2022-08-17T07:10:02.864Z,100.00
2022-08-17T07:12:40.251Z,100.00
2022-08-17T07:15:26.673Z,100.00
2022-08-17T07:17:57.914Z,100.00
2022-08-17T07:20:28.889Z,100.00
2022-08-17T07:23:04.970Z,100.00
2022-08-17T07:25:35.331Z,99.74
2022-08-17T07:28:07.991Z,97.47
2022-08-17T07:30:45.702Z,97.97
2022-08-17T07:33:28.422Z,98.87
2022-08-17T07:35:59.564Z,98.34
2022-08-17T07:38:32.737Z,94.84
2022-08-17T07:41:11.469Z,93.33
2022-08-17T07:43:41.009Z,94.15
2022-08-17T07:46:41.229Z,93.18
2022-08-17T07:49:10.205Z,90.60
2022-08-17T07:51:48.857Z,89.83
2022-08-17T07:54:23.390Z,89.28
2022-08-17T07:57:03.776Z,89.08
2022-08-17T07:59:35.013Z,89.09
2022-08-17T08:02:17.804Z,85.90
2022-08-17T08:05:01.481Z,85.88
2022-08-17T08:08:04.023Z,86.17
2022-08-17T08:10:42.748Z,85.33
2022-08-17T08:13:22.678Z,85.09
2022-08-17T08:15:55.703Z,84.07
2022-08-17T08:18:54.369Z,83.55
2022-08-17T08:21:52.388Z,81.24
2022-08-17T08:24:41.592Z,80.43
2022-08-17T08:27:30.547Z,80.47
2022-08-17T08:30:22.262Z,80.67
2022-08-17T08:33:24.144Z,81.11
2022-08-17T08:36:59.267Z,80.66
2022-08-17T08:39:23.072Z,78.04
2022-08-17T08:42:08.553Z,78.76
2022-08-17T08:45:04.446Z,78.10
2022-08-17T08:48:22.756Z,77.61
2022-08-17T08:51:20.442Z,75.06
2022-08-17T08:54:09.337Z,73.73
2022-08-17T08:57:22.271Z,71.81
2022-08-17T09:00:07.236Z,72.65
2022-08-17T09:02:58.142Z,70.94
2022-08-17T09:05:51.408Z,68.45
2022-08-17T09:08:30.649Z,67.24
2022-08-17T09:11:11.535Z,68.00
2022-08-17T09:14:00.574Z,67.66
2022-08-17T09:16:53.221Z,67.65
2022-08-17T09:19:49.366Z,64.22
2022-08-17T09:22:42.950Z,63.42
2022-08-17T09:25:23.190Z,60.63
2022-08-17T09:28:00.764Z,59.36
2022-08-17T09:30:45.779Z,58.87
2022-08-17T09:33:28.257Z,56.74
2022-08-17T09:36:04.947Z,57.12
2022-08-17T09:38:52.812Z,55.48
2022-08-17T09:41:35.781Z,56.31
2022-08-17T09:44:23.634Z,55.89
2022-08-17T09:47:01.224Z,55.03
2022-08-17T09:49:45.360Z,55.15
2022-08-17T09:52:23.804Z,54.12
2022-08-17T09:54:56.559Z,52.72
2022-08-17T09:57:44.635Z,51.07
2022-08-17T10:00:25.016Z,46.14
2022-08-17T10:03:22.520Z,47.21
2022-08-17T10:06:09.637Z,46.14
2022-08-17T10:09:08.752Z,45.34
2022-08-17T10:12:10.608Z,45.42
2022-08-17T10:14:56.340Z,45.53
2022-08-17T10:17:26.530Z,45.35
2022-08-17T10:20:22.028Z,44.89
2022-08-17T10:23:40.202Z,45.42
2022-08-17T10:26:18.598Z,45.69
2022-08-17T10:28:57.668Z,46.72
2022-08-17T10:31:50.998Z,47.36
2022-08-17T10:35:11.929Z,47.81
2022-08-17T10:37:59.531Z,48.21
2022-08-17T10:40:37.006Z,48.76
2022-08-17T10:43:38.274Z,48.58
2022-08-17T10:46:30.340Z,49.02
2022-08-17T10:49:18.879Z,49.33
2022-08-17T10:51:54.663Z,48.51
2022-08-17T10:54:25.864Z,48.13
2022-08-17T10:56:58.465Z,47.26
2022-08-17T10:59:36.172Z,46.98
2022-08-17T11:02:04.716Z,47.00
2022-08-17T11:05:09.108Z,46.51
2022-08-17T11:08:06.675Z,45.89
2022-08-17T11:11:23.468Z,45.91
2022-08-17T11:13:54.801Z,46.17
2022-08-17T11:16:48.040Z,46.62
2022-08-17T11:19:47.952Z,46.63
2022-08-17T11:22:40.759Z,45.65
2022-08-17T11:25:19.668Z,46.04
2022-08-17T11:28:05.808Z,43.86
2022-08-17T11:30:53.811Z,41.91
2022-08-17T11:33:36.598Z,43.13
2022-08-17T11:36:22.967Z,43.00
2022-08-17T11:38:51.412Z,42.48
2022-08-17T11:41:42.293Z,40.75
2022-08-17T11:44:18.010Z,40.38
2022-08-17T11:47:39.155Z,39.34
2022-08-17T11:50:50.493Z,39.40
2022-08-17T11:53:37.887Z,39.90
2022-08-17T11:56:32.033Z,39.44
2022-08-17T11:59:03.514Z,37.25
2022-08-17T12:01:47.325Z,37.75
2022-08-17T12:04:26.596Z,38.90
2022-08-17T12:07:22.006Z,38.39
2022-08-17T12:09:54.930Z,38.79
2022-08-17T12:12:37.187Z,37.61
2022-08-17T12:15:11.046Z,38.37
2022-08-17T12:17:43.041Z,37.74
2022-08-17T12:20:18.879Z,37.44
2022-08-17T12:23:01.473Z,37.05
2022-08-17T12:25:41.919Z,36.79
2022-08-17T12:28:28.901Z,36.73
2022-08-17T12:31:09.174Z,36.72
2022-08-17T12:33:44.845Z,36.94
2022-08-17T12:36:17.895Z,37.18
2022-08-17T12:39:14.228Z,37.37
2022-08-17T12:41:50.307Z,37.77
2022-08-17T12:44:25.830Z,37.92
2022-08-17T12:47:22.403Z,38.00
2022-08-17T12:49:55.485Z,38.19
2022-08-17T12:52:28.410Z,38.34
2022-08-17T12:55:07.238Z,38.64
2022-08-17T12:57:38.759Z,39.01
2022-08-17T13:00:26.667Z,38.37
2022-08-17T13:03:01.161Z,38.76
2022-08-17T13:05:36.353Z,38.92
2022-08-17T13:08:15.564Z,38.87
2022-08-17T13:11:00.256Z,38.76
2022-08-17T13:13:34.381Z,38.86
2022-08-17T13:16:20.817Z,38.49
2022-08-17T13:19:08.243Z,37.16
2022-08-17T13:21:45.340Z,35.84
2022-08-17T13:24:18.182Z,36.66
2022-08-17T13:26:50.649Z,36.78
2022-08-17T13:29:28.931Z,34.93
2022-08-17T13:32:20.304Z,35.67
2022-08-17T13:35:12.132Z,35.82
2022-08-17T13:38:07.977Z,35.71
2022-08-17T13:40:45.628Z,35.87
2022-08-17T13:43:38.415Z,35.90
2022-08-17T13:46:18.926Z,35.90
2022-08-17T13:49:00.484Z,35.86
2022-08-17T13:51:46.574Z,35.57
2022-08-17T13:54:21.175Z,35.76
2022-08-17T13:57:03.922Z,35.48
2022-08-17T13:59:53.857Z,35.02
2022-08-17T14:02:28.737Z,35.65
2022-08-17T14:05:00.353Z,35.38
2022-08-17T14:07:35.979Z,35.81
2022-08-17T14:10:08.106Z,36.12
2022-08-17T14:12:41.515Z,36.11
2022-08-17T14:15:15.532Z,36.75
2022-08-17T14:17:44.590Z,36.71
2022-08-17T14:20:15.642Z,36.90
2022-08-17T14:22:49.713Z,36.38
2022-08-17T14:25:27.930Z,36.56
2022-08-17T14:27:56.783Z,36.80
2022-08-17T14:30:30.240Z,36.17
2022-08-17T14:33:02.394Z,36.38
2022-08-17T14:35:32.236Z,36.77
2022-08-17T14:38:06.163Z,36.44
2022-08-17T14:40:37.159Z,36.28
2022-08-17T14:43:06.998Z,35.81
2022-08-17T14:45:35.670Z,35.73
2022-08-17T14:48:10.091Z,35.86
2022-08-17T14:50:43.357Z,35.84
2022-08-17T14:53:16.520Z,35.69
2022-08-17T14:55:48.740Z,35.73
2022-08-17T14:58:19.700Z,36.11
2022-08-17T15:00:53.310Z,36.20
2022-08-17T15:03:25.373Z,35.70
2022-08-17T15:05:56.532Z,36.09
2022-08-17T15:08:27.633Z,35.60
2022-08-17T15:10:58.394Z,35.36
2022-08-17T15:13:29.950Z,35.29
2022-08-17T15:16:01.505Z,35.30
2022-08-17T15:18:33.206Z,35.26
2022-08-17T15:21:06.289Z,35.05
2022-08-17T15:23:37.208Z,35.02
2022-08-17T15:26:08.738Z,35.08
2022-08-17T15:28:40.501Z,34.73
2022-08-17T15:31:11.231Z,34.49
2022-08-17T15:33:42.034Z,34.26
2022-08-17T15:36:11.883Z,34.52
2022-08-17T15:38:44.552Z,34.25
2022-08-17T15:41:18.524Z,34.55
2022-08-17T15:43:50.642Z,33.89
2022-08-17T15:46:24.560Z,32.83
2022-08-17T15:49:00.302Z,32.75
2022-08-17T15:51:34.503Z,32.03
2022-08-17T15:54:18.671Z,31.97
2022-08-17T15:56:55.312Z,32.15
2022-08-17T15:59:26.496Z,31.30
2022-08-17T16:03:15.925Z,30.23
2022-08-17T16:04:53.051Z,28.01
2022-08-17T16:07:26.830Z,27.65
2022-08-17T16:09:58.388Z,27.41
2022-08-17T16:12:29.415Z,25.50
2022-08-17T16:15:00.292Z,26.04
2022-08-17T16:17:39.830Z,25.79
2022-08-17T16:20:20.713Z,25.98
2022-08-17T16:22:54.475Z,25.69
2022-08-17T16:25:52.460Z,25.17
2022-08-17T16:28:35.804Z,25.23
2022-08-17T16:31:08.009Z,24.94
2022-08-17T16:33:39.660Z,24.91
2022-08-17T16:36:09.024Z,25.04
2022-08-17T16:38:39.125Z,25.54
2022-08-17T16:41:07.567Z,26.09
2022-08-17T16:43:36.177Z,26.61
2022-08-17T16:46:06.236Z,27.23
2022-08-17T16:48:36.261Z,27.39
2022-08-17T16:51:06.374Z,27.92
2022-08-17T16:53:36.919Z,28.40
2022-08-17T16:56:09.072Z,28.40
2022-08-17T16:58:42.985Z,28.31
2022-08-17T17:01:15.963Z,28.39
2022-08-17T17:03:53.122Z,28.01
2022-08-17T17:07:01.712Z,27.52
2022-08-17T17:09:38.479Z,27.74
2022-08-17T17:12:35.059Z,27.67
2022-08-17T17:15:11.256Z,28.21
2022-08-17T17:17:50.598Z,29.28
2022-08-17T17:20:36.581Z,29.48
2022-08-17T17:23:26.207Z,30.10
2022-08-17T17:26:33.049Z,30.71
2022-08-17T17:29:10.874Z,31.38
2022-08-17T17:31:58.691Z,31.91
2022-08-17T17:34:35.561Z,32.90
2022-08-17T17:37:15.565Z,33.55
2022-08-17T17:39:59.717Z,34.31
2022-08-17T17:42:33.728Z,34.88
2022-08-17T17:45:23.574Z,35.76
2022-08-17T17:47:54.796Z,36.26
2022-08-17T17:50:38.848Z,36.77
2022-08-17T17:53:41.870Z,37.47
2022-08-17T17:56:43.145Z,37.92
2022-08-17T17:59:41.811Z,39.35
2022-08-17T18:02:56.579Z,39.88
2022-08-17T18:05:37.386Z,41.04
2022-08-17T18:08:12.755Z,41.53
2022-08-17T18:11:05.131Z,42.12
2022-08-17T18:14:18.612Z,42.74
2022-08-17T18:16:54.415Z,43.55
2022-08-17T18:19:28.339Z,44.12
2022-08-17T18:22:14.820Z,44.98
2022-08-17T18:24:56.737Z,46.01
2022-08-17T18:27:53.458Z,46.99
2022-08-17T18:30:23.526Z,47.68
2022-08-17T18:32:55.132Z,48.27
2022-08-17T18:35:31.746Z,49.53
2022-08-17T18:38:35.396Z,50.54
2022-08-17T18:41:30.603Z,51.40
2022-08-17T18:44:29.303Z,52.29
2022-08-17T18:47:16.701Z,53.42
2022-08-17T18:50:01.705Z,54.54
2022-08-17T18:52:35.504Z,56.11
2022-08-17T18:55:15.358Z,56.38
2022-08-17T18:57:58.062Z,57.49
2022-08-17T19:00:41.970Z,58.69
2022-08-17T19:03:17.951Z,59.42
2022-08-17T19:05:57.271Z,59.75
2022-08-17T19:08:30.934Z,60.05
2022-08-17T19:11:11.765Z,60.13
2022-08-17T19:13:56.684Z,60.78
2022-08-17T19:16:34.145Z,61.14
2022-08-17T19:19:33.844Z,62.15
2022-08-17T19:22:31.024Z,62.87
2022-08-17T19:25:17.446Z,62.42
2022-08-17T19:27:57.829Z,62.34
2022-08-17T19:30:30.957Z,62.77
2022-08-17T19:33:05.807Z,63.20
2022-08-17T19:35:55.494Z,63.48
2022-08-17T19:38:32.021Z,64.21
2022-08-17T19:41:09.707Z,64.49
2022-08-17T19:44:21.914Z,65.24
2022-08-17T19:47:12.291Z,66.08
2022-08-17T19:50:12.509Z,66.57
2022-08-17T19:52:49.373Z,67.23
2022-08-17T19:55:46.833Z,67.73
2022-08-17T19:58:36.464Z,67.85
2022-08-17T20:01:33.969Z,67.74
2022-08-17T20:04:25.454Z,68.63
2022-08-17T20:07:33.435Z,69.36
2022-08-17T20:10:29.981Z,69.83
2022-08-17T20:13:18.065Z,70.56
2022-08-17T20:16:10.019Z,71.66
2022-08-17T20:18:54.432Z,71.97
2022-08-17T20:21:54.185Z,72.50
2022-08-17T20:24:40.058Z,72.88
2022-08-17T20:27:20.734Z,73.72
2022-08-17T20:29:56.991Z,74.02
2022-08-17T20:32:55.362Z,74.59
2022-08-17T20:35:31.834Z,74.68
2022-08-17T20:38:08.600Z,75.05
2022-08-17T20:41:04.356Z,75.69
2022-08-17T20:43:41.756Z,76.50
2022-08-17T20:46:35.628Z,77.06
2022-08-17T20:49:50.979Z,77.45
2022-08-17T20:52:48.738Z,77.65
2022-08-17T20:55:51.708Z,78.42
2022-08-17T20:58:33.949Z,77.99
2022-08-17T21:01:28.979Z,78.89
2022-08-17T21:03:59.865Z,79.39
2022-08-17T21:06:32.115Z,79.49
2022-08-17T21:09:13.035Z,79.93
2022-08-17T21:12:04.584Z,79.94
2022-08-17T21:15:07.634Z,79.75
2022-08-17T21:17:50.068Z,79.92
2022-08-17T21:20:52.751Z,79.82
2022-08-17T21:23:49.413Z,80.11
2022-08-17T21:27:03.218Z,80.11
2022-08-17T21:29:40.342Z,81.01
2022-08-17T21:32:18.492Z,80.85
2022-08-17T21:35:09.525Z,80.89
2022-08-17T21:37:48.514Z,82.69
2022-08-17T21:40:29.266Z,82.19
2022-08-17T21:43:24.747Z,81.76
2022-08-17T21:46:04.660Z,82.14
2022-08-17T21:48:45.363Z,83.28
2022-08-17T21:51:29.024Z,83.77
2022-08-17T21:54:07.523Z,83.25
2022-08-17T21:56:46.757Z,83.18
2022-08-17T21:59:35.975Z,83.15
2022-08-17T22:02:31.028Z,82.70
2022-08-17T22:05:08.577Z,83.15
2022-08-17T22:07:49.072Z,83.64
2022-08-17T22:10:48.633Z,83.55
2022-08-17T22:13:29.763Z,83.76
2022-08-17T22:16:28.746Z,83.72
2022-08-17T22:19:05.849Z,83.70
2022-08-17T22:21:36.793Z,83.62
2022-08-17T22:24:25.959Z,83.82
2022-08-17T22:27:06.125Z,84.68
2022-08-17T22:29:58.332Z,85.08
2022-08-17T22:32:38.519Z,85.45
2022-08-17T22:35:18.433Z,85.50
2022-08-17T22:37:51.874Z,85.84
2022-08-17T22:40:35.817Z,86.32
2022-08-17T22:43:06.897Z,86.59
2022-08-17T22:45:45.567Z,87.21
2022-08-17T22:48:27.258Z,87.86
2022-08-17T22:51:28.501Z,88.57
2022-08-17T22:54:40.690Z,88.30
2022-08-17T22:57:39.251Z,90.22
2022-08-17T23:00:34.799Z,90.74
2022-08-17T23:03:20.906Z,92.01
2022-08-17T23:06:11.303Z,91.91
2022-08-17T23:09:00.987Z,90.93
2022-08-17T23:11:50.882Z,91.07
2022-08-17T23:14:25.565Z,90.75
2022-08-17T23:16:59.518Z,90.95
2022-08-17T23:19:33.541Z,91.12
2022-08-17T23:22:08.769Z,91.99
2022-08-17T23:24:50.080Z,92.85
2022-08-17T23:27:24.611Z,93.93
2022-08-17T23:29:55.706Z,94.36
2022-08-17T23:32:29.141Z,94.48
2022-08-17T23:35:02.702Z,94.96
2022-08-17T23:37:36.493Z,96.93
2022-08-17T23:40:09.950Z,95.91
2022-08-17T23:42:47.294Z,96.56
2022-08-17T23:45:18.461Z,95.89
2022-08-17T23:47:52.638Z,96.07
2022-08-17T23:50:29.912Z,96.18
2022-08-17T23:53:01.153Z,97.37
2022-08-17T23:55:36.377Z,97.15
2022-08-17T23:58:08.609Z,97.87
